createdAt,value
2018-12-31T00:05:01.571Z,12.27
2018-12-31T00:07:42.035Z,12.00
2018-12-31T00:10:22.956Z,13.00
2018-12-31T00:13:03.599Z,12.57
2018-12-31T00:15:44.402Z,12.93
2018-12-31T00:18:24.822Z,12.77
2018-12-31T00:21:05.726Z,13.00
2018-12-31T00:23:46.994Z,13.23
2018-12-31T00:26:28.201Z,13.40
2018-12-31T00:29:09.330Z,13.40
2018-12-31T00:31:50.044Z,13.40
2018-12-31T00:34:30.815Z,13.63
2018-12-31T00:37:11.786Z,13.77
2018-12-31T00:39:52.696Z,13.30
2018-12-31T00:42:33.698Z,13.73
2018-12-31T00:45:14.147Z,12.93
2018-12-31T00:47:55.187Z,12.80
2018-12-31T00:50:35.884Z,13.43
2018-12-31T00:53:16.642Z,12.10
2018-12-31T00:55:57.930Z,13.27
2018-12-31T00:58:38.590Z,12.80
2018-12-31T01:01:19.488Z,13.20
2018-12-31T01:04:00.332Z,12.67
2018-12-31T01:06:41.135Z,11.87
2018-12-31T01:09:21.979Z,11.53
2018-12-31T01:12:02.407Z,12.33
2018-12-31T01:14:42.933Z,12.13
2018-12-31T01:17:23.646Z,12.23
2018-12-31T01:20:04.555Z,11.63
2018-12-31T01:22:44.981Z,12.53
2018-12-31T01:25:25.391Z,12.20
2018-12-31T01:28:09.138Z,11.73
2018-12-31T01:30:49.514Z,12.03
2018-12-31T01:33:30.071Z,12.20
2018-12-31T01:36:10.697Z,11.87
2018-12-31T01:38:51.494Z,11.80
2018-12-31T01:41:33.262Z,11.53
2018-12-31T01:44:13.589Z,12.00
2018-12-31T01:46:54.099Z,11.97
2018-12-31T01:49:35.118Z,11.57
2018-12-31T01:52:15.978Z,12.63
2018-12-31T01:54:56.554Z,12.67
2018-12-31T01:57:37.272Z,11.97
2018-12-31T02:00:18.471Z,12.97
2018-12-31T02:02:59.194Z,13.43
2018-12-31T02:05:40.386Z,12.70
2018-12-31T02:08:21.107Z,12.97
2018-12-31T02:11:01.571Z,11.97
2018-12-31T02:13:42.140Z,12.20
2018-12-31T02:16:23.304Z,12.13
2018-12-31T02:19:04.128Z,12.43
2018-12-31T02:21:44.923Z,12.10
2018-12-31T02:24:25.445Z,12.60
2018-12-31T02:27:05.974Z,11.77
2018-12-31T02:29:46.616Z,12.20
2018-12-31T02:32:27.443Z,12.67
2018-12-31T02:35:08.455Z,12.30
2018-12-31T02:37:49.376Z,11.20
2018-12-31T02:40:29.755Z,11.73
2018-12-31T02:43:10.175Z,11.80
2018-12-31T02:45:50.759Z,12.33
2018-12-31T02:48:31.674Z,12.33
2018-12-31T02:51:12.280Z,11.57
2018-12-31T02:53:53.067Z,11.00
2018-12-31T02:56:34.012Z,12.57
2018-12-31T03:01:57.707Z,12.23
2018-12-31T03:04:38.754Z,11.73
2018-12-31T03:07:19.206Z,11.80
2018-12-31T03:09:59.873Z,10.63
2018-12-31T03:12:40.399Z,11.93
2018-12-31T03:15:21.099Z,11.40
2018-12-31T03:18:01.697Z,12.47
2018-12-31T03:20:42.264Z,11.70
2018-12-31T03:23:22.784Z,10.20
2018-12-31T03:26:03.460Z,10.30
2018-12-31T03:28:43.976Z,11.43
2018-12-31T03:31:24.745Z,13.62
2018-12-31T03:34:05.711Z,11.30
2018-12-31T03:36:46.326Z,11.17
2018-12-31T03:39:26.995Z,10.77
2018-12-31T03:42:07.372Z,10.83
2018-12-31T03:44:47.888Z,10.73
2018-12-31T03:47:28.778Z,11.00
2018-12-31T03:50:09.572Z,10.90
2018-12-31T03:52:50.588Z,10.33
2018-12-31T03:55:31.547Z,10.80
2018-12-31T03:58:12.126Z,10.87
2018-12-31T04:00:53.119Z,10.50
2018-12-31T04:03:34.055Z,10.80
2018-12-31T04:06:14.778Z,10.50
2018-12-31T04:08:55.579Z,10.67
2018-12-31T04:11:36.273Z,10.07
2018-12-31T04:14:17.215Z,9.70
2018-12-31T04:16:58.395Z,9.73
2018-12-31T04:19:39.217Z,9.70
2018-12-31T04:22:19.636Z,9.17
2018-12-31T04:25:00.752Z,9.30
2018-12-31T04:27:41.667Z,9.30
2018-12-31T04:30:22.303Z,9.90
2018-12-31T04:33:03.049Z,8.50
2018-12-31T04:35:43.551Z,11.33
2018-12-31T04:38:24.419Z,10.07
2018-12-31T04:41:05.663Z,8.47
2018-12-31T04:43:46.020Z,8.17
2018-12-31T04:46:26.800Z,9.20
2018-12-31T04:49:07.603Z,8.27
2018-12-31T04:51:48.333Z,8.33
2018-12-31T04:54:29.383Z,8.57
2018-12-31T04:57:10.425Z,9.03
2018-12-31T04:59:50.966Z,8.70
2018-12-31T05:02:31.530Z,8.43
2018-12-31T05:05:12.448Z,9.23
2018-12-31T05:07:52.994Z,9.53
2018-12-31T05:10:33.703Z,9.57
2018-12-31T05:13:14.598Z,9.47
2018-12-31T05:15:55.123Z,9.60
2018-12-31T05:18:35.855Z,9.50
2018-12-31T05:21:04.427Z,9.30
2018-12-31T05:23:52.311Z,9.13
2018-12-31T05:26:40.228Z,9.77
2018-12-31T05:29:28.119Z,9.67
2018-12-31T05:32:16.026Z,9.13
2018-12-31T05:35:03.980Z,9.23
2018-12-31T05:37:51.744Z,9.67
2018-12-31T05:40:39.656Z,9.43
2018-12-31T05:43:27.545Z,10.00
2018-12-31T05:46:08.615Z,9.20
2018-12-31T05:48:49.248Z,9.63
2018-12-31T05:54:37.943Z,9.77
2018-12-31T05:57:18.514Z,9.30
2018-12-31T05:59:59.180Z,10.40
2018-12-31T06:02:40.047Z,9.80
2018-12-31T06:05:20.696Z,9.90
2018-12-31T06:08:01.079Z,9.50
2018-12-31T06:10:41.819Z,9.63
2018-12-31T06:13:22.385Z,9.90
2018-12-31T06:16:03.007Z,9.53
2018-12-31T06:18:43.567Z,9.13
2018-12-31T06:21:24.196Z,9.43
2018-12-31T06:24:05.123Z,9.03
2018-12-31T06:26:46.076Z,9.67
2018-12-31T06:35:51.296Z,9.87
2018-12-31T06:38:31.888Z,9.07
2018-12-31T06:41:12.331Z,9.07
2018-12-31T06:43:52.704Z,9.07
2018-12-31T06:46:33.717Z,8.67
2018-12-31T06:49:14.107Z,8.40
2018-12-31T06:51:54.859Z,8.30
2018-12-31T06:54:36.107Z,8.53
2018-12-31T06:57:16.765Z,8.87
2018-12-31T06:59:57.597Z,8.30
2018-12-31T07:02:38.347Z,8.03
2018-12-31T07:05:18.977Z,8.63
2018-12-31T07:07:59.975Z,9.00
2018-12-31T07:10:40.771Z,8.30
2018-12-31T07:13:21.564Z,8.13
2018-12-31T07:16:02.304Z,8.93
2018-12-31T07:18:43.022Z,8.70
2018-12-31T07:21:23.668Z,9.07
2018-12-31T07:24:04.488Z,8.80
2018-12-31T07:26:45.031Z,8.77
2018-12-31T07:29:25.532Z,8.20
2018-12-31T07:32:05.948Z,7.50
2018-12-31T07:34:46.643Z,7.73
2018-12-31T07:37:27.771Z,8.53
2018-12-31T07:40:09.020Z,7.03
2018-12-31T07:42:49.751Z,8.00
2018-12-31T07:45:30.852Z,8.13
2018-12-31T07:48:11.628Z,8.47
2018-12-31T07:50:52.150Z,8.23
2018-12-31T07:53:32.803Z,7.90
2018-12-31T07:56:13.540Z,7.73
2018-12-31T07:58:54.140Z,7.30
2018-12-31T08:01:36.249Z,8.00
2018-12-31T08:04:17.378Z,8.05
2018-12-31T08:07:00.542Z,7.80
2018-12-31T08:09:41.367Z,7.83
2018-12-31T08:12:21.920Z,8.50
2018-12-31T08:15:02.425Z,7.77
2018-12-31T08:17:43.336Z,7.97
2018-12-31T08:20:24.123Z,8.27
2018-12-31T08:23:04.816Z,8.37
2018-12-31T08:25:45.685Z,7.87
2018-12-31T08:28:26.111Z,7.63
2018-12-31T08:31:06.799Z,7.93
2018-12-31T08:33:47.749Z,7.53
2018-12-31T08:36:28.141Z,7.77
2018-12-31T08:39:08.499Z,7.80
2018-12-31T08:41:48.812Z,7.33
2018-12-31T08:44:29.114Z,7.53
2018-12-31T08:47:09.746Z,7.57
2018-12-31T08:49:50.494Z,7.73
2018-12-31T08:52:31.156Z,7.90
2018-12-31T08:55:11.596Z,7.70
2018-12-31T08:57:51.920Z,6.73
2018-12-31T09:00:32.568Z,6.83
2018-12-31T09:03:13.051Z,7.97
2018-12-31T09:05:53.714Z,7.70
2018-12-31T09:08:34.831Z,7.83
2018-12-31T09:11:15.268Z,7.00
2018-12-31T09:13:55.944Z,6.73
2018-12-31T09:16:36.838Z,6.90
2018-12-31T09:19:17.611Z,6.93
2018-12-31T09:21:58.659Z,7.50
2018-12-31T09:24:44.647Z,6.70
2018-12-31T09:27:22.407Z,7.50
2018-12-31T09:30:02.931Z,8.97
2018-12-31T09:32:43.442Z,11.97
2018-12-31T09:35:24.104Z,10.03
2018-12-31T09:38:05.129Z,6.93
2018-12-31T09:40:45.572Z,7.50
2018-12-31T09:43:26.660Z,7.33
2018-12-31T09:46:07.304Z,6.80
2018-12-31T09:48:47.884Z,8.93
2018-12-31T09:51:28.879Z,10.13
2018-12-31T09:54:09.995Z,8.83
2018-12-31T09:56:50.631Z,11.27
2018-12-31T09:59:31.396Z,6.73
2018-12-31T10:01:59.969Z,6.73
2018-12-31T10:04:47.850Z,6.77
2018-12-31T10:07:35.759Z,6.70
2018-12-31T10:10:23.663Z,5.77
2018-12-31T10:13:11.547Z,5.80
2018-12-31T10:15:59.451Z,6.00
2018-12-31T10:18:47.343Z,4.93
2018-12-31T10:21:41.026Z,5.30
2018-12-31T10:24:25.091Z,5.70
2018-12-31T10:27:12.991Z,5.10
2018-12-31T10:30:00.878Z,5.53
2018-12-31T10:32:48.779Z,5.40
2018-12-31T10:35:36.667Z,5.87
2018-12-31T10:38:24.582Z,5.50
2018-12-31T10:41:12.491Z,4.33
2018-12-31T10:44:00.376Z,4.70
2018-12-31T10:46:41.394Z,4.30
2018-12-31T10:49:22.113Z,4.30
2018-12-31T10:52:03.095Z,4.30
2018-12-31T10:54:43.623Z,4.13
2018-12-31T10:57:27.402Z,4.37
2018-12-31T11:00:08.651Z,4.73
2018-12-31T11:02:49.044Z,4.47
2018-12-31T11:05:30.000Z,5.27
2018-12-31T11:08:11.023Z,4.37
2018-12-31T11:10:51.995Z,5.03
2018-12-31T11:13:32.720Z,5.20
2018-12-31T11:16:13.363Z,5.33
2018-12-31T11:18:53.918Z,4.87
2018-12-31T11:21:34.531Z,5.87
2018-12-31T11:24:15.309Z,6.00
2018-12-31T11:26:56.139Z,5.73
2018-12-31T11:29:36.687Z,5.57
2018-12-31T11:32:17.204Z,5.50
2018-12-31T11:34:57.931Z,5.70
2018-12-31T11:37:38.611Z,5.63
2018-12-31T11:40:18.933Z,7.30
2018-12-31T11:42:59.338Z,7.13
2018-12-31T11:45:40.274Z,6.00
2018-12-31T11:48:21.267Z,5.70
2018-12-31T11:51:01.971Z,5.77
2018-12-31T11:53:42.539Z,5.80
2018-12-31T11:56:23.328Z,5.67
2018-12-31T11:59:04.100Z,5.57
2018-12-31T12:01:45.059Z,5.10
2018-12-31T12:04:25.783Z,5.53
2018-12-31T12:07:07.052Z,6.03
2018-12-31T12:09:47.983Z,5.93
2018-12-31T12:12:28.824Z,6.27
2018-12-31T12:15:09.312Z,5.47
2018-12-31T12:17:37.883Z,5.40
2018-12-31T12:20:25.764Z,5.57
2018-12-31T12:23:13.920Z,5.80
2018-12-31T12:26:01.810Z,5.63
2018-12-31T12:28:49.710Z,5.87
2018-12-31T12:31:37.627Z,6.33
2018-12-31T12:34:25.511Z,6.53
2018-12-31T12:37:13.415Z,5.97
2018-12-31T12:40:01.309Z,6.53
2018-12-31T12:42:49.202Z,6.30
2018-12-31T12:45:37.087Z,6.07
2018-12-31T12:48:17.671Z,7.30
2018-12-31T12:50:58.115Z,31.33
2018-12-31T12:53:39.103Z,13.70
2018-12-31T12:56:20.314Z,9.47
2018-12-31T12:58:48.878Z,7.40
2018-12-31T13:01:36.835Z,6.40
2018-12-31T13:04:24.743Z,7.03
2018-12-31T13:07:12.655Z,6.97
2018-12-31T13:10:00.530Z,6.53
2018-12-31T13:12:48.442Z,7.20
2018-12-31T13:15:36.331Z,6.87
2018-12-31T13:18:24.243Z,6.53
2018-12-31T13:21:12.131Z,6.90
2018-12-31T13:24:00.038Z,6.23
2018-12-31T13:26:47.927Z,6.63
2018-12-31T13:29:35.975Z,6.53
2018-12-31T13:32:23.858Z,6.70
2018-12-31T13:35:12.080Z,6.83
2018-12-31T13:38:00.059Z,6.37
2018-12-31T13:40:47.947Z,6.03
2018-12-31T13:43:35.854Z,6.73
2018-12-31T13:46:16.771Z,6.03
2018-12-31T13:48:57.646Z,9.33
2018-12-31T13:51:38.651Z,10.90
2018-12-31T13:54:19.315Z,6.57
2018-12-31T13:57:00.050Z,14.60
2018-12-31T13:59:40.809Z,18.10
2018-12-31T14:02:21.856Z,7.07
2018-12-31T14:05:02.503Z,7.30
2018-12-31T14:07:43.256Z,7.77
2018-12-31T14:10:24.196Z,7.73
2018-12-31T14:13:10.276Z,7.07
2018-12-31T14:15:50.844Z,6.70
2018-12-31T14:18:31.663Z,6.27
2018-12-31T14:21:12.535Z,6.50
2018-12-31T14:23:53.126Z,5.67
2018-12-31T14:26:33.914Z,6.30
2018-12-31T14:29:14.585Z,6.30
2018-12-31T14:31:55.557Z,7.00
2018-12-31T14:34:36.655Z,6.90
2018-12-31T14:37:17.461Z,6.60
2018-12-31T14:39:58.436Z,6.73
2018-12-31T14:42:39.419Z,7.67
2018-12-31T14:45:20.063Z,6.90
2018-12-31T14:48:01.043Z,7.30
2018-12-31T14:50:41.801Z,6.53
2018-12-31T14:53:23.060Z,7.10
2018-12-31T14:56:03.963Z,7.07
2018-12-31T14:58:44.596Z,7.03
2018-12-31T15:01:25.486Z,7.27
2018-12-31T15:04:06.724Z,8.10
2018-12-31T15:06:47.218Z,7.97
2018-12-31T15:09:28.210Z,7.90
2018-12-31T15:12:08.917Z,7.30
2018-12-31T15:14:49.331Z,6.97
2018-12-31T15:17:30.419Z,9.00
2018-12-31T15:20:10.982Z,9.97
2018-12-31T15:22:51.914Z,7.70
2018-12-31T15:25:32.799Z,8.30
2018-12-31T15:28:13.887Z,7.57
2018-12-31T15:30:54.266Z,7.63
2018-12-31T15:33:35.056Z,8.20
2018-12-31T15:36:15.948Z,8.47
2018-12-31T15:38:56.768Z,8.50
2018-12-31T15:41:37.181Z,7.93
2018-12-31T15:44:17.778Z,8.43
2018-12-31T15:46:58.748Z,8.73
2018-12-31T15:49:40.001Z,8.13
2018-12-31T15:52:20.875Z,8.70
2018-12-31T15:55:01.772Z,14.60
2018-12-31T15:57:42.078Z,9.50
2018-12-31T16:00:22.527Z,13.07
2018-12-31T16:03:03.664Z,11.40
2018-12-31T16:05:44.624Z,8.53
2018-12-31T16:08:26.211Z,8.73
2018-12-31T16:11:06.819Z,8.80
2018-12-31T16:13:47.781Z,8.10
2018-12-31T16:16:28.719Z,8.53
2018-12-31T16:19:09.632Z,11.43
2018-12-31T16:21:50.443Z,11.77
2018-12-31T16:24:30.884Z,9.13
2018-12-31T16:27:11.499Z,9.10
2018-12-31T16:29:52.277Z,8.80
2018-12-31T16:32:32.639Z,10.83
2018-12-31T16:35:13.509Z,15.67
2018-12-31T16:37:54.277Z,12.20
2018-12-31T16:40:34.846Z,10.00
2018-12-31T16:43:15.565Z,9.83
2018-12-31T16:45:56.296Z,10.27
2018-12-31T16:48:37.067Z,9.60
2018-12-31T16:51:17.611Z,8.80
2018-12-31T16:53:58.335Z,13.93
2018-12-31T16:56:38.852Z,9.87
2018-12-31T17:02:27.365Z,9.93
2018-12-31T17:05:07.882Z,9.47
2018-12-31T17:07:48.327Z,10.57
2018-12-31T17:13:37.116Z,9.70
2018-12-31T17:16:17.675Z,10.80
2018-12-31T17:18:58.004Z,10.87
2018-12-31T17:21:38.943Z,9.80
2018-12-31T17:24:19.467Z,11.47
2018-12-31T17:27:00.308Z,12.00
2018-12-31T17:29:41.231Z,11.20
2018-12-31T17:32:22.133Z,10.87
2018-12-31T17:35:03.003Z,11.60
2018-12-31T17:37:44.379Z,10.33
2018-12-31T17:40:25.344Z,12.13
2018-12-31T17:43:06.063Z,10.03
2018-12-31T17:45:46.860Z,11.07
2018-12-31T17:48:27.400Z,10.17
2018-12-31T17:51:08.364Z,11.67
2018-12-31T17:53:49.083Z,13.53
2018-12-31T17:56:29.951Z,15.37
2018-12-31T17:59:10.955Z,16.83
2018-12-31T18:01:51.739Z,14.30
2018-12-31T18:07:37.746Z,16.43
2018-12-31T18:10:18.320Z,15.43
2018-12-31T18:12:59.211Z,12.17
2018-12-31T18:15:40.057Z,13.17
2018-12-31T18:18:40.004Z,12.73
2018-12-31T18:21:20.720Z,11.30
2018-12-31T18:24:01.668Z,9.83
2018-12-31T18:26:42.442Z,9.83
2018-12-31T18:29:22.737Z,10.97
2018-12-31T18:32:03.826Z,10.47
2018-12-31T18:34:44.732Z,10.33
2018-12-31T18:37:25.850Z,9.00
2018-12-31T18:40:06.995Z,9.70
2018-12-31T18:42:47.971Z,10.10
2018-12-31T18:45:28.777Z,10.30
2018-12-31T18:48:09.636Z,9.70
2018-12-31T18:50:50.468Z,10.10
2018-12-31T18:53:30.998Z,30.43
2018-12-31T18:56:11.839Z,11.03
2018-12-31T18:58:52.327Z,10.17
2018-12-31T19:01:33.140Z,9.00
2018-12-31T19:04:14.453Z,9.00
2018-12-31T19:06:55.603Z,9.40
2018-12-31T19:09:36.074Z,9.27
2018-12-31T19:12:16.679Z,9.20
2018-12-31T19:14:58.139Z,9.67
2018-12-31T19:17:38.879Z,8.87
2018-12-31T19:20:19.459Z,10.10
2018-12-31T19:23:00.077Z,7.80
2018-12-31T19:25:40.663Z,8.70
2018-12-31T19:28:21.230Z,8.33
2018-12-31T19:31:02.431Z,7.97
2018-12-31T19:33:43.059Z,8.37
2018-12-31T19:36:23.915Z,7.20
2018-12-31T19:39:04.873Z,8.20
2018-12-31T19:41:45.538Z,8.40
2018-12-31T19:44:26.487Z,7.87
2018-12-31T19:47:06.914Z,8.27
2018-12-31T19:52:52.699Z,7.70
2018-12-31T19:55:33.411Z,7.23
2018-12-31T19:58:14.227Z,7.23
2018-12-31T20:00:54.590Z,6.90
2018-12-31T20:03:35.174Z,7.47
2018-12-31T20:06:16.152Z,7.97
2018-12-31T20:08:56.970Z,6.87
2018-12-31T20:11:37.595Z,8.13
2018-12-31T20:14:18.069Z,8.10
2018-12-31T20:16:58.623Z,8.37
2018-12-31T20:19:39.658Z,8.87
2018-12-31T20:22:20.167Z,8.53
2018-12-31T20:25:00.838Z,8.47
2018-12-31T20:27:41.403Z,9.40
2018-12-31T20:30:22.098Z,8.73
2018-12-31T20:33:02.895Z,8.90
2018-12-31T20:35:43.398Z,9.30
2018-12-31T20:38:24.144Z,9.63
2018-12-31T20:41:04.886Z,10.53
2018-12-31T20:43:45.755Z,10.27
2018-12-31T20:46:26.556Z,11.13
2018-12-31T20:49:07.451Z,10.50
2018-12-31T20:54:56.414Z,10.50
2018-12-31T20:57:37.415Z,11.87
2018-12-31T21:00:18.244Z,10.97
2018-12-31T21:02:58.956Z,9.90
2018-12-31T21:05:39.847Z,11.23
2018-12-31T21:08:20.812Z,11.23
2018-12-31T21:11:02.108Z,11.97
2018-12-31T21:13:43.028Z,11.13
2018-12-31T21:16:23.451Z,12.17
2018-12-31T21:19:04.093Z,12.17
2018-12-31T21:21:44.606Z,12.43
2018-12-31T21:24:25.320Z,12.40
2018-12-31T21:27:07.277Z,12.93
2018-12-31T21:29:48.587Z,12.60
2018-12-31T21:32:29.046Z,12.93
2018-12-31T21:35:09.612Z,13.73
2018-12-31T21:40:58.211Z,13.33
2018-12-31T21:43:39.184Z,13.73
2018-12-31T21:46:19.658Z,13.23
2018-12-31T21:49:00.247Z,13.90
2018-12-31T21:54:48.607Z,13.67
2018-12-31T21:57:29.133Z,14.13
2018-12-31T22:00:10.014Z,13.50
2018-12-31T22:02:56.924Z,13.47
2018-12-31T22:05:34.017Z,13.53
2018-12-31T22:08:14.538Z,12.60
2018-12-31T22:14:14.495Z,11.93
2018-12-31T22:20:03.087Z,11.77
2018-12-31T22:22:43.740Z,10.63
2018-12-31T22:25:24.059Z,10.33
2018-12-31T22:28:04.419Z,10.07
2018-12-31T22:30:45.274Z,9.47
2018-12-31T22:36:30.910Z,10.10
2018-12-31T22:39:11.770Z,8.50
2018-12-31T22:45:12.055Z,7.47
2018-12-31T22:47:53.343Z,8.13
2018-12-31T22:50:33.664Z,8.50
2018-12-31T22:53:14.735Z,8.53
2018-12-31T22:55:55.515Z,8.47
2018-12-31T22:58:36.515Z,8.57
2018-12-31T23:01:17.139Z,9.60
2018-12-31T23:03:58.019Z,13.90
2018-12-31T23:06:38.936Z,35.73
2018-12-31T23:09:20.153Z,24.83
2018-12-31T23:12:00.935Z,30.83
2018-12-31T23:14:41.449Z,32.30
2018-12-31T23:17:22.168Z,27.37
2018-12-31T23:20:03.119Z,52.70
2018-12-31T23:22:43.889Z,31.33
2018-12-31T23:25:24.759Z,34.73
2018-12-31T23:28:05.716Z,34.80
2018-12-31T23:30:46.257Z,45.17
2018-12-31T23:33:26.855Z,31.60
2018-12-31T23:36:07.741Z,19.07
2018-12-31T23:38:48.768Z,17.87
2018-12-31T23:41:29.735Z,18.17
2018-12-31T23:44:10.979Z,17.20
2018-12-31T23:46:51.888Z,15.60
2018-12-31T23:52:37.915Z,16.67
2018-12-31T23:55:18.349Z,17.20
2018-12-31T23:57:58.743Z,16.97
